Des Lacs, ND

7:01 PM CST on March 04, 2015 (GMT -0600)
Minot International | Change Station
CLOSE
Current Station
Airport
Location: Minot,
Elevation: 1716 ft
Nearby Weather Stations
Active Advisory: Wind Chill Advisory Active Notice: Public Information Statement

Elev 1716 ft 48.26 °N, 101.28 °W | Updated 7 minutes ago

Clear
Clear
-3 °F
Feels Like -13 °F
N
5
Wind Variable Wind from West

Today
High -- | Low -- °F
--% Chance of Precip.
Yesterday
High -- | Low -- °F
Precip. -- in
7:22 AM 6:34 PM
Full, 100% visible
Pressure 30.48 in
Visibility 10.0 miles
Clouds Clear
Windchill -13 °F
Dew Point -13 °F
Humidity 62%
Rainfall 0.00 in
Snow Depth Not available.
UV 0 out of 12
Pollen .10 out of 12
Air Quality Not available.
Flu Activity Not available.
METAR KMOT 050054Z 27004KT 10SM CLR M19/M25 A3031 RMK AO2 SLP320 T11941250

More Conditions Fewer Conditions

Pressure 30.48 in
Visibility 10.0 miles
Clouds Clear
Windchill -13 °F
Dew Point -13 °F
Humidity 62%
Rainfall 0.00 in
Snow Depth Not available.
UV 0 out of 12
Pollen .10 out of 12
Air Quality Not available.
Flu Activity Not available.
METAR KMOT 050054Z 27004KT 10SM CLR M19/M25 A3031 RMK AO2 SLP320 T11941250

More Conditions Fewer Conditions

10-Day Weather Forecast

Almanac

Astronomy

Mar. 04, 2015 Rise Set
Actual Time
Civil Twilight
Nautical Twilight
Astronomical Twilight
Moon
Length of Visible Light
Length of Day
Tomorrow will be .
, % of the Moon is Illuminated

Today's Extremes

State Highs State Lows

Community

WunderPhotos

Upload Photos

1,802,615 photos uploaded!

WunderBlogs® & News

Nearby

Air Quality

  Air Quality AQ Index Pollutant
Not available.

Snow Depth

Station Depth Elevation

Earthquake Activity

City Distance Mag. Time & Date
Minimum magnitude displayed is 2.5.

Coastal Water Temperatures

Place Temperature

Nearby Weather Stations

Wind Chill Advisory
Statement as of 6:16 PM CST on March 04, 2015

... Wind Chill Advisory remains in effect until 10 am CST
Thursday...

* wind chill values... 20 below to 35 below zero.

* Other impacts... frost bite possible in under 30 minutes to
exposed skin.

Precautionary/preparedness actions...

A Wind Chill Advisory means the combination of wind and very cold
air will create low wind chills. This will result in frost bite
and lead to hypothermia if precautions are not taken.